createdAt,value
2018-07-05T00:00:59.907Z,2.20
2018-07-05T00:03:39.491Z,1.60
2018-07-05T00:06:18.973Z,1.63
2018-07-05T00:08:58.376Z,1.80
2018-07-05T00:11:39.280Z,1.90
2018-07-05T00:14:18.637Z,1.70
2018-07-05T00:16:58.201Z,1.57
2018-07-05T00:19:37.565Z,2.33
2018-07-05T00:22:17.731Z,1.93
2018-07-05T00:24:57.176Z,1.60
2018-07-05T00:27:36.707Z,1.90
2018-07-05T00:30:16.305Z,1.40
2018-07-05T00:32:55.729Z,1.77
2018-07-05T00:35:34.922Z,1.77
2018-07-05T00:38:14.355Z,2.00
2018-07-05T00:40:53.785Z,1.70
2018-07-05T00:43:33.376Z,1.90
2018-07-05T00:46:12.817Z,1.97
2018-07-05T00:48:52.070Z,1.40
2018-07-05T00:51:31.631Z,1.37
2018-07-05T00:54:11.218Z,2.43
2018-07-05T00:56:50.640Z,2.90
2018-07-05T00:59:30.052Z,1.63
2018-07-05T01:02:09.522Z,1.70
2018-07-05T01:04:49.006Z,1.90
2018-07-05T01:07:28.592Z,1.63
2018-07-05T01:10:07.975Z,1.23
2018-07-05T01:12:47.409Z,1.60
2018-07-05T01:15:26.872Z,1.30
2018-07-05T01:18:06.377Z,1.53
2018-07-05T01:20:45.930Z,2.83
2018-07-05T01:23:25.499Z,1.83
2018-07-05T01:26:04.852Z,1.23
2018-07-05T01:28:44.244Z,1.80
2018-07-05T01:31:23.702Z,1.37
2018-07-05T01:34:03.033Z,1.60
2018-07-05T01:36:42.472Z,1.50
2018-07-05T01:39:21.883Z,1.50
2018-07-05T01:42:01.337Z,1.47
2018-07-05T01:44:40.676Z,1.90
2018-07-05T01:47:20.172Z,1.73
2018-07-05T01:49:59.562Z,2.03
2018-07-05T01:52:39.154Z,1.70
2018-07-05T01:55:18.674Z,2.07
2018-07-05T01:57:58.052Z,1.63
2018-07-05T02:00:37.383Z,1.77
2018-07-05T02:03:16.703Z,2.13
2018-07-05T02:05:56.179Z,1.90
2018-07-05T02:08:35.647Z,2.40
2018-07-05T02:11:15.131Z,2.87
2018-07-05T02:13:54.608Z,2.93
2018-07-05T02:16:34.704Z,1.77
2018-07-05T02:19:14.144Z,1.33
2018-07-05T02:21:53.409Z,2.27
2018-07-05T02:24:33.731Z,2.27
2018-07-05T02:27:12.979Z,2.00
2018-07-05T02:29:53.321Z,1.50
2018-07-05T02:32:32.755Z,2.17
2018-07-05T02:35:12.009Z,1.70
2018-07-05T02:37:52.206Z,2.20
2018-07-05T02:40:31.611Z,1.50
2018-07-05T02:43:11.823Z,2.23
2018-07-05T02:45:51.268Z,1.57
2018-07-05T02:48:30.658Z,1.30
2018-07-05T02:51:10.053Z,3.20
2018-07-05T02:53:50.383Z,2.57
2018-07-05T02:56:29.712Z,2.63
2018-07-05T02:59:09.202Z,1.90
2018-07-05T03:01:49.025Z,2.17
2018-07-05T03:04:28.336Z,1.97
2018-07-05T03:07:08.128Z,2.30
2018-07-05T03:09:47.564Z,3.13
2018-07-05T03:12:27.118Z,1.40
2018-07-05T03:15:07.463Z,2.63
2018-07-05T03:17:46.879Z,2.10
2018-07-05T03:20:26.837Z,2.40
2018-07-05T03:23:06.361Z,2.00
2018-07-05T03:25:46.630Z,2.13
2018-07-05T03:28:26.215Z,2.33
2018-07-05T03:31:05.483Z,2.70
2018-07-05T03:33:44.824Z,3.07
2018-07-05T03:36:24.207Z,1.43
2018-07-05T03:39:03.624Z,2.40
2018-07-05T03:41:43.081Z,2.10
2018-07-05T03:44:22.551Z,1.97
2018-07-05T03:47:02.859Z,1.83
2018-07-05T03:49:42.310Z,3.33
2018-07-05T03:52:21.652Z,3.37
2018-07-05T03:55:01.106Z,1.90
2018-07-05T03:57:41.210Z,2.93
2018-07-05T04:00:20.699Z,3.80
2018-07-05T04:03:00.899Z,3.13
2018-07-05T04:05:40.158Z,3.50
2018-07-05T04:08:20.526Z,4.03
2018-07-05T04:11:00.751Z,2.90
2018-07-05T04:13:40.117Z,3.93
2018-07-05T04:16:20.354Z,3.77
2018-07-05T04:18:59.583Z,3.57
2018-07-05T04:21:39.003Z,2.13
2018-07-05T04:24:18.339Z,3.13
2018-07-05T04:26:57.679Z,3.30
2018-07-05T04:29:37.206Z,2.30
2018-07-05T04:32:16.633Z,5.47
2018-07-05T04:34:55.964Z,3.57
2018-07-05T04:37:35.222Z,2.90
2018-07-05T04:40:14.840Z,3.47
2018-07-05T04:42:54.280Z,3.77
2018-07-05T04:45:33.744Z,4.27
2018-07-05T04:48:13.984Z,5.68
2018-07-05T04:50:53.513Z,4.27
2018-07-05T04:53:32.759Z,3.83
2018-07-05T04:56:12.923Z,3.30
2018-07-05T04:58:53.201Z,3.97
2018-07-05T05:01:32.679Z,2.20
2018-07-05T05:04:12.095Z,8.17
2018-07-05T05:06:51.411Z,2.67
2018-07-05T05:09:30.982Z,5.93
2018-07-05T05:12:10.352Z,2.53
2018-07-05T05:14:50.680Z,4.30
2018-07-05T05:17:29.955Z,2.77
2018-07-05T05:20:09.431Z,4.30
2018-07-05T05:22:48.838Z,6.17
2018-07-05T05:25:28.092Z,4.03
2018-07-05T05:28:07.571Z,3.20
2018-07-05T05:30:47.015Z,3.60
2018-07-05T05:33:26.569Z,3.43
2018-07-05T05:36:05.993Z,2.77
2018-07-05T05:38:45.522Z,2.30
2018-07-05T05:41:25.071Z,2.27
2018-07-05T05:44:04.611Z,3.90
2018-07-05T05:46:44.115Z,5.13
2018-07-05T05:49:24.339Z,2.80
2018-07-05T05:52:03.738Z,3.47
2018-07-05T05:54:43.264Z,2.53
2018-07-05T05:57:22.856Z,2.57
2018-07-05T06:00:02.202Z,3.13
2018-07-05T06:02:41.620Z,2.20
2018-07-05T06:05:21.114Z,4.00
2018-07-05T06:08:00.671Z,3.50
2018-07-05T06:10:40.032Z,2.83
2018-07-05T06:13:19.304Z,3.10
2018-07-05T06:15:58.752Z,3.20
2018-07-05T06:18:38.154Z,6.40
2018-07-05T06:21:17.621Z,3.93
2018-07-05T06:23:57.084Z,4.67
2018-07-05T06:26:36.644Z,5.97
2018-07-05T06:29:16.707Z,6.50
2018-07-05T06:31:56.941Z,6.40
2018-07-05T06:34:36.479Z,5.20
2018-07-05T06:37:15.939Z,6.00
2018-07-05T06:39:56.123Z,4.07
2018-07-05T06:42:35.606Z,3.53
2018-07-05T06:45:14.943Z,4.90
2018-07-05T06:47:54.265Z,3.93
2018-07-05T06:50:34.378Z,2.97
2018-07-05T06:53:13.805Z,4.67
2018-07-05T06:55:53.451Z,4.73
2018-07-05T06:58:33.032Z,6.90
2018-07-05T07:01:12.628Z,2.77
2018-07-05T07:03:51.907Z,3.00
2018-07-05T07:06:31.516Z,2.87
2018-07-05T07:09:11.035Z,3.40
2018-07-05T07:11:50.416Z,2.90
2018-07-05T07:14:29.933Z,3.37
2018-07-05T07:17:09.713Z,2.87
2018-07-05T07:19:49.940Z,2.47
2018-07-05T07:22:29.367Z,2.73
2018-07-05T07:25:08.559Z,2.93
2018-07-05T07:27:47.971Z,2.57
2018-07-05T07:30:28.208Z,2.20
2018-07-05T07:33:08.423Z,2.30
2018-07-05T07:35:48.656Z,2.07
2018-07-05T07:38:28.147Z,3.60
2018-07-05T07:41:07.411Z,1.73
2018-07-05T07:43:35.133Z,2.20
2018-07-05T07:46:02.193Z,5.03
2018-07-05T07:48:29.937Z,2.23
2018-07-05T07:50:57.000Z,1.97
2018-07-05T07:53:24.082Z,1.80
2018-07-05T07:55:51.112Z,2.17
2018-07-05T07:58:18.190Z,1.63
2018-07-05T08:00:45.232Z,1.40
2018-07-05T08:03:12.212Z,2.83
2018-07-05T08:05:40.062Z,2.23
2018-07-05T08:08:07.065Z,1.73
2018-07-05T08:10:34.855Z,1.50
2018-07-05T08:13:01.918Z,1.73
2018-07-05T08:15:28.976Z,1.60
2018-07-05T08:17:55.938Z,1.43
2018-07-05T08:20:23.744Z,1.73
2018-07-05T08:22:50.672Z,1.50
2018-07-05T08:25:18.405Z,1.70
2018-07-05T08:27:45.391Z,1.20
2018-07-05T08:30:13.119Z,1.73
2018-07-05T08:32:40.093Z,2.87
2018-07-05T08:35:07.065Z,1.83
2018-07-05T08:37:34.799Z,1.47
2018-07-05T08:40:01.773Z,2.17
2018-07-05T08:42:29.526Z,1.47
2018-07-05T08:44:56.562Z,1.20
2018-07-05T08:47:24.241Z,1.77
2018-07-05T08:49:51.221Z,1.60
2018-07-05T08:52:18.968Z,1.77
2018-07-05T08:54:47.446Z,1.67
2018-07-05T08:57:14.415Z,1.20
2018-07-05T08:59:42.159Z,1.93
2018-07-05T09:02:09.225Z,1.57
2018-07-05T09:04:36.195Z,2.13
2018-07-05T09:07:03.939Z,1.87
2018-07-05T09:09:30.895Z,1.20
2018-07-05T09:11:58.696Z,1.20
2018-07-05T09:14:25.701Z,1.40
2018-07-05T09:16:52.674Z,1.10
2018-07-05T09:19:19.635Z,1.20
2018-07-05T09:21:47.372Z,2.17
2018-07-05T09:24:14.433Z,1.23
2018-07-05T09:26:41.551Z,1.20
2018-07-05T09:29:08.460Z,1.30
2018-07-05T09:31:36.308Z,1.33
2018-07-05T09:34:04.895Z,1.13
2018-07-05T09:36:33.477Z,1.30
2018-07-05T09:39:00.437Z,1.33
2018-07-05T09:41:27.485Z,1.27
2018-07-05T09:43:54.456Z,1.10
2018-07-05T09:46:22.294Z,1.10
2018-07-05T09:48:49.286Z,0.97
2018-07-05T09:51:17.097Z,0.80
2018-07-05T09:53:44.076Z,1.10
2018-07-05T09:56:11.117Z,1.17
2018-07-05T09:58:38.099Z,0.80
2018-07-05T10:01:05.060Z,1.00
2018-07-05T10:03:32.911Z,1.10
2018-07-05T10:05:59.869Z,0.70
2018-07-05T10:08:26.899Z,1.37
2018-07-05T10:10:53.949Z,1.40
2018-07-05T10:13:21.109Z,0.80
2018-07-05T10:15:47.991Z,1.10
2018-07-05T10:18:15.829Z,1.17
2018-07-05T10:20:42.871Z,0.90
2018-07-05T10:23:09.850Z,1.10
2018-07-05T10:25:37.568Z,2.40
2018-07-05T10:28:04.544Z,1.20
2018-07-05T10:30:44.028Z,0.97
2018-07-05T10:33:23.476Z,0.80
2018-07-05T10:35:50.457Z,1.00
2018-07-05T10:38:17.435Z,2.10
2018-07-05T10:40:58.306Z,0.70
2018-07-05T10:43:37.833Z,0.90
2018-07-05T10:46:17.164Z,0.93
2018-07-05T10:48:56.544Z,1.00
2018-07-05T10:51:36.124Z,0.77
2018-07-05T10:54:15.399Z,0.93
2018-07-05T10:56:55.555Z,0.90
2018-07-05T10:59:35.012Z,1.77
2018-07-05T11:02:14.556Z,0.90
2018-07-05T11:04:54.784Z,0.80
2018-07-05T11:07:34.272Z,1.10
2018-07-05T11:10:13.769Z,2.00
2018-07-05T11:12:53.313Z,0.80
2018-07-05T11:15:32.829Z,0.90
2018-07-05T11:18:12.132Z,1.53
2018-07-05T11:20:51.659Z,0.90
2018-07-05T11:23:31.155Z,1.13
2018-07-05T11:26:10.360Z,1.30
2018-07-05T11:28:50.642Z,1.33
2018-07-05T11:31:29.967Z,1.00
2018-07-05T11:34:09.549Z,1.70
2018-07-05T11:36:48.986Z,0.90
2018-07-05T11:39:28.319Z,0.83
2018-07-05T11:42:07.858Z,1.03
2018-07-05T11:44:47.216Z,1.13
2018-07-05T11:47:27.391Z,1.20
2018-07-05T11:50:07.055Z,0.90
2018-07-05T11:52:46.509Z,1.13
2018-07-05T11:55:26.257Z,0.80
2018-07-05T11:58:05.664Z,0.90
2018-07-05T12:00:45.618Z,1.60
2018-07-05T12:03:25.316Z,1.10
2018-07-05T12:06:05.424Z,1.47
2018-07-05T12:08:44.970Z,1.23
2018-07-05T12:11:24.607Z,1.00
2018-07-05T12:14:04.040Z,0.90
2018-07-05T12:16:43.439Z,0.93
2018-07-05T12:19:22.845Z,1.00
2018-07-05T12:22:03.066Z,1.40
2018-07-05T12:24:42.530Z,0.83
2018-07-05T12:27:22.688Z,1.33
2018-07-05T12:30:02.192Z,1.00
2018-07-05T12:32:41.617Z,1.07
2018-07-05T12:35:20.939Z,1.23
2018-07-05T12:38:00.495Z,1.20
2018-07-05T12:40:39.823Z,1.20
2018-07-05T12:43:19.253Z,0.70
2018-07-05T12:45:58.593Z,1.13
2018-07-05T12:48:37.827Z,1.00
2018-07-05T12:51:17.419Z,1.50
2018-07-05T12:53:56.824Z,1.10
2018-07-05T12:56:36.902Z,1.07
2018-07-05T12:59:16.461Z,1.17
2018-07-05T13:01:55.925Z,1.37
2018-07-05T13:04:35.410Z,0.90
2018-07-05T13:07:14.797Z,1.10
2018-07-05T13:09:54.131Z,0.80
2018-07-05T13:12:33.611Z,1.10
2018-07-05T13:15:13.055Z,1.07
2018-07-05T13:17:52.597Z,0.80
2018-07-05T13:20:32.161Z,1.13
2018-07-05T13:23:11.598Z,1.23
2018-07-05T13:25:52.199Z,1.03
2018-07-05T13:28:32.515Z,0.70
2018-07-05T13:31:11.892Z,0.90
2018-07-05T13:33:52.511Z,0.83
2018-07-05T13:36:31.861Z,0.80
2018-07-05T13:39:12.059Z,0.80
2018-07-05T13:41:51.491Z,1.30
2018-07-05T13:44:30.899Z,1.20
2018-07-05T13:47:11.116Z,1.20
2018-07-05T13:49:50.579Z,0.80
2018-07-05T13:52:30.745Z,1.10
2018-07-05T13:55:10.917Z,0.90
2018-07-05T13:57:50.397Z,1.27
2018-07-05T14:00:29.768Z,0.90
2018-07-05T14:03:10.029Z,0.90
2018-07-05T14:05:50.259Z,1.10
2018-07-05T14:08:29.491Z,1.87
2018-07-05T14:11:09.778Z,1.30
2018-07-05T14:13:49.418Z,1.10
2018-07-05T14:16:28.902Z,1.20
2018-07-05T14:19:08.437Z,0.73
2018-07-05T14:21:47.796Z,1.40
2018-07-05T14:24:28.081Z,1.30
2018-07-05T14:27:07.596Z,1.10
2018-07-05T14:29:47.801Z,1.43
2018-07-05T14:32:27.352Z,1.50
2018-07-05T14:35:07.397Z,1.30
2018-07-05T14:37:46.732Z,1.20
2018-07-05T14:40:26.268Z,1.93
2018-07-05T14:43:05.612Z,1.30
2018-07-05T14:45:44.992Z,1.17
2018-07-05T14:48:24.487Z,1.40
2018-07-05T14:51:03.910Z,1.20
2018-07-05T14:53:43.156Z,1.23
2018-07-05T14:56:23.357Z,1.20
2018-07-05T14:59:02.711Z,0.90
2018-07-05T15:01:42.114Z,1.67
2018-07-05T15:04:21.638Z,1.37
2018-07-05T15:07:00.863Z,1.20
2018-07-05T15:09:40.385Z,1.30
2018-07-05T15:12:20.673Z,1.20
2018-07-05T15:15:00.059Z,1.30
2018-07-05T15:17:39.470Z,1.10
2018-07-05T15:20:18.931Z,1.30
2018-07-05T15:22:58.254Z,1.20
2018-07-05T15:25:38.050Z,0.97
2018-07-05T15:28:17.428Z,1.10
2018-07-05T15:30:57.668Z,1.10
2018-07-05T15:33:37.186Z,1.00
2018-07-05T15:36:17.709Z,0.90
2018-07-05T15:38:57.112Z,0.80
2018-07-05T15:41:36.448Z,1.30
2018-07-05T15:44:16.032Z,1.70
2018-07-05T15:46:56.235Z,1.70
2018-07-05T15:49:35.738Z,1.10
2018-07-05T15:52:15.274Z,1.13
2018-07-05T15:54:54.779Z,1.20
2018-07-05T15:57:34.942Z,0.93
2018-07-05T16:00:14.320Z,1.03
2018-07-05T16:02:53.881Z,1.37
2018-07-05T16:05:33.173Z,0.90
2018-07-05T16:08:12.563Z,1.40
2018-07-05T16:10:52.870Z,1.10
2018-07-05T16:13:32.329Z,1.67
2018-07-05T16:16:11.807Z,4.00
2018-07-05T16:18:51.158Z,3.07
2018-07-05T16:21:30.640Z,2.90
2018-07-05T16:24:10.166Z,3.83
2018-07-05T16:26:49.444Z,5.00
2018-07-05T16:29:28.767Z,5.13
2018-07-05T16:32:09.023Z,8.93
2018-07-05T16:34:49.091Z,8.43
2018-07-05T16:37:28.463Z,6.17
2018-07-05T16:40:07.865Z,5.13
2018-07-05T16:42:47.449Z,3.50
2018-07-05T16:45:26.791Z,2.17
2018-07-05T16:48:06.392Z,2.27
2018-07-05T16:50:45.896Z,2.17
2018-07-05T16:53:25.432Z,2.43
2018-07-05T16:56:05.642Z,2.87
2018-07-05T16:58:44.984Z,1.50
2018-07-05T17:01:25.284Z,2.50
2018-07-05T17:04:04.784Z,1.87
2018-07-05T17:06:44.334Z,2.83
2018-07-05T17:09:23.579Z,1.63
2018-07-05T17:12:03.047Z,1.70
2018-07-05T17:14:42.563Z,1.63
2018-07-05T17:17:21.883Z,1.53
2018-07-05T17:20:01.999Z,1.93
2018-07-05T17:22:42.255Z,1.53
2018-07-05T17:25:22.492Z,1.30
2018-07-05T17:28:01.844Z,1.47
2018-07-05T17:30:42.075Z,2.10
2018-07-05T17:33:21.494Z,1.77
2018-07-05T17:36:00.847Z,1.63
2018-07-05T17:38:40.298Z,2.00
2018-07-05T17:41:19.684Z,2.10
2018-07-05T17:43:59.064Z,2.27
2018-07-05T17:46:38.448Z,1.57
2018-07-05T17:49:18.029Z,1.60
2018-07-05T17:51:57.358Z,1.70
2018-07-05T17:54:36.844Z,2.17
2018-07-05T17:57:16.275Z,2.00
2018-07-05T17:59:55.718Z,3.63
2018-07-05T18:02:35.195Z,2.77
2018-07-05T18:05:14.476Z,2.57
2018-07-05T18:07:54.014Z,2.60
2018-07-05T18:10:33.484Z,2.17
2018-07-05T18:13:13.045Z,2.40
2018-07-05T18:15:52.480Z,3.03
2018-07-05T18:18:31.727Z,1.83
2018-07-05T18:21:11.205Z,2.60
2018-07-05T18:23:50.774Z,2.90
2018-07-05T18:26:30.210Z,2.43
2018-07-05T18:29:09.708Z,2.80
2018-07-05T18:31:49.052Z,2.50
2018-07-05T18:34:28.620Z,2.37
2018-07-05T18:37:08.016Z,2.73
2018-07-05T18:39:47.540Z,2.43
2018-07-05T18:42:26.982Z,2.90
2018-07-05T18:45:06.307Z,3.40
2018-07-05T18:47:45.787Z,2.40
2018-07-05T18:50:25.237Z,2.10
2018-07-05T18:53:05.391Z,3.40
2018-07-05T18:55:44.802Z,1.83
2018-07-05T18:58:24.099Z,3.23
2018-07-05T19:01:03.597Z,2.90
2018-07-05T19:03:42.920Z,1.97
2018-07-05T19:06:23.217Z,2.10
2018-07-05T19:09:03.152Z,2.93
2018-07-05T19:11:43.242Z,2.57
2018-07-05T19:14:22.534Z,2.40
2018-07-05T19:17:02.971Z,2.43
2018-07-05T19:19:42.387Z,2.07
2018-07-05T19:22:21.984Z,1.90
2018-07-05T19:25:01.472Z,2.10
2018-07-05T19:27:42.225Z,2.10
2018-07-05T19:30:21.762Z,2.33
2018-07-05T19:33:01.150Z,2.77
2018-07-05T19:35:41.249Z,2.57
2018-07-05T19:38:20.796Z,2.00
2018-07-05T19:41:00.231Z,2.83
2018-07-05T19:43:39.406Z,2.30
2018-07-05T19:46:18.900Z,2.70
2018-07-05T19:48:58.230Z,1.80
2018-07-05T19:51:37.620Z,1.93
2018-07-05T19:54:17.169Z,1.67
2018-07-05T19:56:56.637Z,1.87
2018-07-05T19:59:35.998Z,2.33
2018-07-05T20:02:16.284Z,2.07
2018-07-05T20:04:55.792Z,2.10
2018-07-05T20:07:35.894Z,1.73
2018-07-05T20:10:15.345Z,1.73
2018-07-05T20:12:54.712Z,3.33
2018-07-05T20:15:34.967Z,1.60
2018-07-05T20:18:15.231Z,1.90
2018-07-05T20:20:54.820Z,1.93
2018-07-05T20:23:34.149Z,1.70
2018-07-05T20:26:13.597Z,4.80
2018-07-05T20:28:52.862Z,1.90
2018-07-05T20:31:33.092Z,1.90
2018-07-05T20:34:14.057Z,1.53
2018-07-05T20:36:53.446Z,2.03
2018-07-05T20:39:32.798Z,2.20
2018-07-05T20:42:12.258Z,2.00
2018-07-05T20:44:53.039Z,1.93
2018-07-05T20:47:32.460Z,2.30
2018-07-05T20:50:12.639Z,2.83
2018-07-05T20:52:54.160Z,1.97
2018-07-05T20:55:34.513Z,2.00
2018-07-05T20:58:13.997Z,1.60
2018-07-05T21:00:53.479Z,2.20
2018-07-05T21:03:33.026Z,2.03
2018-07-05T21:06:12.537Z,2.07
2018-07-05T21:08:52.044Z,2.10
2018-07-05T21:11:31.463Z,1.83
2018-07-05T21:14:10.678Z,1.70
2018-07-05T21:16:50.078Z,2.70
2018-07-05T21:19:29.638Z,2.20
2018-07-05T21:22:09.039Z,2.40
2018-07-05T21:24:48.547Z,2.30
2018-07-05T21:27:27.765Z,1.67
2018-07-05T21:30:07.056Z,2.37
2018-07-05T21:32:47.233Z,1.87
2018-07-05T21:35:26.767Z,2.43
2018-07-05T21:38:06.276Z,2.97
2018-07-05T21:40:45.487Z,2.73
2018-07-05T21:43:24.825Z,3.43
2018-07-05T21:46:04.376Z,3.80
2018-07-05T21:48:43.867Z,2.47
2018-07-05T21:51:23.343Z,2.20
2018-07-05T21:54:02.920Z,2.43
2018-07-05T21:56:42.371Z,3.60
2018-07-05T21:59:21.592Z,3.43
2018-07-05T22:02:01.083Z,2.60
2018-07-05T22:04:40.675Z,3.53
2018-07-05T22:07:20.209Z,2.90
2018-07-05T22:09:59.604Z,3.00
2018-07-05T22:12:39.048Z,2.60
2018-07-05T22:15:18.515Z,2.80
2018-07-05T22:17:57.988Z,2.63
2018-07-05T22:20:52.268Z,2.40
2018-07-05T22:26:36.011Z,3.37
2018-07-05T22:29:33.160Z,2.20
2018-07-05T22:32:12.426Z,2.33
2018-07-05T22:34:51.875Z,2.30
2018-07-05T22:37:31.227Z,2.40
2018-07-05T22:40:11.439Z,2.43
2018-07-05T22:42:50.671Z,4.00
2018-07-05T22:45:30.000Z,2.53
2018-07-05T22:48:09.184Z,3.20
2018-07-05T22:50:48.668Z,1.73
2018-07-05T22:53:27.923Z,2.50
2018-07-05T22:56:07.419Z,2.43
2018-07-05T22:58:46.734Z,2.30
2018-07-05T23:01:26.157Z,2.77
2018-07-05T23:04:05.553Z,2.97
2018-07-05T23:06:44.986Z,2.13
2018-07-05T23:09:24.469Z,2.63
2018-07-05T23:12:03.771Z,2.40
2018-07-05T23:14:43.880Z,2.57
2018-07-05T23:17:23.334Z,2.40
2018-07-05T23:20:02.667Z,2.43
2018-07-05T23:22:42.195Z,2.83
2018-07-05T23:25:21.422Z,2.23
2018-07-05T23:28:00.858Z,2.50
2018-07-05T23:30:40.396Z,3.90
2018-07-05T23:33:19.841Z,3.03
2018-07-05T23:35:59.176Z,3.70
2018-07-05T23:38:38.714Z,3.43
2018-07-05T23:41:18.059Z,3.20
2018-07-05T23:43:57.489Z,3.43
2018-07-05T23:46:36.956Z,3.70
2018-07-05T23:49:16.509Z,2.73
2018-07-05T23:51:55.979Z,4.07
2018-07-05T23:54:35.527Z,2.27
2018-07-05T23:57:15.050Z,3.60
2018-07-05T23:59:54.703Z,2.97
